• Join FlightAware (Why Join?)
  • Login
  • US Flag 
02:50PM EDT


 

Airport Tracker/Info


-or-


 

Live Flight TrackerFlight Track Log ✈ AWE3418 ✈ 26-Apr-2013 ✈ KCMH - KPHL

Flight Track Log - Related Links

Times and Time Zones

All times are in EDT time to prevent confusion due to time zone crossing. See the AWE3418 flight status page for this flight to view local times or setup timezone preferences in your user account.

Time Position Orientation Groundspeed Altitude Reporting Facility
EDT Latitude Longitude Course Direction KTS MPH feet Rate Location/Type
04:51PM 40.0003 -82.8800 247° West 154 177 1,300  Level Indianapolis Center
04:51PM 39.9994 -82.8636 94° East 129 148 2,200 1,680 Climbing Indianapolis Center
04:52PM 39.9986 -82.7994 91° East 194 223 3,500 2,220 Climbing Indianapolis Center
04:53PM 39.9967 -82.7053 92° East 241 277 6,500 3,000 Climbing Indianapolis Center
04:54PM 39.8667 -75.2333 247° West  Level FlightAware Approximate
04:54PM 39.9900 -82.6017 95° East 277 319 9,700  Level Indianapolis Center
04:55PM 39.8722 -75.2409 247° West  Level Estimated
04:55PM 39.9836 -82.4864 94° East 312 359 10,000  Level Indianapolis Center
04:56PM 39.8722 -75.2409 247° West  Level Estimated
04:56PM 39.9836 -82.3686 90° East 323 372 11,800  Level Indianapolis Center
04:57PM 40.0050 -82.2503 77° East 332 382 14,400 2,700 Climbing Indianapolis Center
04:58PM 40.0283 -82.1008 78° East 357 411 17,400 2,280 Climbing Indianapolis Center
04:59PM 40.0494 -81.9636 79° East 379 436 19,200 2,040 Climbing Indianapolis Center
05:00PM 40.0722 -81.8194 78° East 398 458 21,700 1,980 Climbing Indianapolis Center
05:02PM 40.0944 -81.6733 79° East 415 478 23,400 1,620 Climbing Indianapolis Center
05:03PM 40.1183 -81.5158 79° East 434 499 25,100 1,500 Climbing Indianapolis Center
05:03PM 40.1392 -81.3978 77° East 433 498 26,100 1,620 Climbing Cleveland Center
05:04PM 40.1653 -81.2325 78° East 449 517 27,900 1,800 Climbing Cleveland Center
05:05PM 40.1892 -81.0642 79° East 461 531 29,700 1,500 Climbing Cleveland Center
05:06PM 40.2147 -80.8983 79° East 466 536 31,000 600 Climbing Cleveland Center
05:07PM 40.2381 -80.7272 80° East 471 542 31,000  Level Cleveland Center
05:08PM 40.2611 -80.5642 79° East 466 536 31,000  Level Cleveland Center
05:09PM 40.2692 -80.3928 86° East 466 536 31,000  Level Cleveland Center
05:10PM 40.2750 -80.2075 88° East 461 531 31,000  Level Cleveland Center
05:11PM 40.2828 -80.0333 87° East 462 532 31,000  Level Cleveland Center
05:12PM 40.2881 -79.8617 88° East 462 532 31,000  Level Cleveland Center
05:13PM 40.2931 -79.6903 88° East 462 532 31,000  Level Cleveland Center
05:14PM 40.3000 -79.5214 87° East 462 532 31,000  Level Cleveland Center
05:15PM 40.3044 -79.3497 88° East 462 532 31,000  Level Cleveland Center
05:16PM 40.3047 -79.1972 90° East 462 532 31,000  Level Cleveland Center
05:17PM 40.3089 -79.0258 88° East 462 532 31,000  Level Cleveland Center
05:18PM 40.3147 -78.8542 87° East 462 532 31,000  Level Cleveland Center
05:19PM 40.3161 -78.6825 89° East 462 532 31,000  Level Cleveland Center
05:20PM 40.3153 -78.5108 90° East 462 532 31,000 -1,200 Level Cleveland Center
05:22PM 40.3144 -78.1839 90° East 470 541 27,600 -1,980 Descending New York Center
05:23PM 40.3119 -78.0231 91° East 465 535 25,300 -1,320 Descending New York Center
05:24PM 40.3128 -77.8678 90° East 440 506 25,000 -180 Descending New York Center
05:25PM 40.3117 -77.7153 90° East 429 494 25,000  Level New York Center
05:26PM 40.3081 -77.5597 92° East 422 486 25,000  Level New York Center
05:27PM 40.3064 -77.4069 91° East 422 486 25,000 -780 Level New York Center
05:28PM 40.3022 -77.2542 92° East 422 486 23,500 -1,560 Descending New York Center
05:29PM 40.2978 -77.1067 92° East 422 486 21,900 -1,500 Descending New York Center
05:30PM 40.2783 -76.9633 100° East 414 476 20,500 -1,500 Descending New York Center
05:31PM 40.2550 -76.8089 101° East 395 455 18,900 -1,320 Descending New York Center
05:32PM 40.2347 -76.6767 101° East 385 443 17,900 -1,200 Descending New York Center
05:33PM 40.2156 -76.5581 102° East 374 430 16,600 -1,320 Descending New York Center
05:34PM 40.1947 -76.4286 102° East 362 417 15,300 -1,440 Descending New York Center
05:35PM 40.1719 -76.2881 102° East 357 411 13,800 -1,560 Descending New York Center
05:36PM 40.1506 -76.1669 103° East 357 411 12,200 -1,440 Descending New York Center
05:37PM 40.1328 -76.0542 102° East 351 404 10,900 -1,320 Descending New York Center
05:38PM 40.1167 -75.9444 101° East 327 376 9,600 -1,440 Descending New York Center
05:39PM 40.0983 -75.8428 103° East 303 349 8,000 -900 Descending New York Center
05:40PM 40.0819 -75.7383 102° East 293 337 7,900  Descending New York Center
05:41PM 40.0781 -75.6322 93° East 293 337 8,000 -540 Climbing New York Center
05:42PM 40.0717 -75.5314 95° East 288 331 6,900 -1,020 Descending New York Center
05:43PM 40.0672 -75.4308 93° East 283 326 6,000 -480 Descending New York Center
05:44PM 40.0650 -75.3331 92° East 276 318 6,000  Level New York Center
05:45PM 40.0583 -75.2350 95° East 276 318 6,000  Level New York Center
05:46PM 40.0333 -75.2000 133° Southeast 266 306 6,000  Level Philadelphia TRACON
05:47PM 39.9833 -75.1500 143° Southeast 198 228 6,000  Level Philadelphia TRACON
05:48PM 39.9833 -75.0833 90° East 209 241 6,000 -720 Level Philadelphia TRACON
05:48PM 39.9500 -75.0333 131° Southeast 202 232 4,700 -1,500 Descending Philadelphia TRACON
05:49PM 39.9167 -75.0667 217° Southwest 173 199 3,200 -1,380 Descending Philadelphia TRACON